Time;durP1;ratioP1;P1;durP2;ratioP2;P2;SDS_P1;SDS_P2;PMS_P1;PMS_P2;Temp;Humidity;BMP_temperature;BMP_pressure;BME280_temperature;BME280_humidity;BME280_pressure;Samples;Min_cycle;Max_cycle;Signal;HPM_P1;HPM_P2
2022/05/23 00:01:28;;;;;;;1.90;1.10;;;;;;;;;;5074993;28;20442;-82
2022/05/23 00:03:54;;;;;;;1.52;0.93;;;;;;;;;;5075077;28;20387;-81
2022/05/23 00:06:21;;;;;;;1.70;1.10;;;;;;;;;;5075154;28;20376;-82
2022/05/23 00:08:48;;;;;;;2.30;1.10;;;;;;;;;;5072279;28;20401;-82
2022/05/23 00:11:14;;;;;;;1.52;1.20;;;;;;;;;;5075021;28;20383;-82
2022/05/23 00:13:40;;;;;;;2.38;1.10;;;;;;;;;;5067131;28;20390;-81
2022/05/23 00:16:06;;;;;;;2.50;0.95;;;;;;;;;;5075101;28;20462;-81
2022/05/23 00:18:32;;;;;;;1.52;1.20;;;;;;;;;;5074885;28;20384;-81
2022/05/23 00:20:58;;;;;;;1.77;1.20;;;;;;;;;;5074938;28;20946;-81
2022/05/23 00:23:24;;;;;;;1.67;1.50;;;;;;;;;;5074703;28;20392;-82
2022/05/23 00:25:50;;;;;;;2.10;0.93;;;;;;;;;;5074729;28;20408;-82
2022/05/23 00:28:16;;;;;;;1.30;1.13;;;;;;;;;;5056814;28;20470;-81
2022/05/23 00:30:43;;;;;;;1.30;1.10;;;;;;;;;;5074664;28;20458;-81
2022/05/23 00:35:54;;;;;;;2.55;0.93;;;;;;;;;;5057639;28;20434;-82
2022/05/23 00:38:21;;;;;;;1.30;1.13;;;;;;;;;;5074411;28;20458;-82
2022/05/23 00:43:52;;;;;;;1.27;1.10;;;;;;;;;;5053936;28;20369;-81
2022/05/23 00:46:18;;;;;;;1.85;1.05;;;;;;;;;;5059812;28;20845;-81
2022/05/23 00:48:44;;;;;;;1.40;1.00;;;;;;;;;;5074649;28;20387;-81
2022/05/23 00:51:13;;;;;;;1.08;1.00;;;;;;;;;;5074124;28;20463;-80
2022/05/23 00:53:41;;;;;;;1.38;0.90;;;;;;;;;;5074154;28;20399;-81
2022/05/23 00:56:08;;;;;;;1.40;0.93;;;;;;;;;;5074158;28;20380;-81
2022/05/23 00:58:40;;;;;;;2.05;1.10;;;;;;;;;;5073950;28;20388;-81
2022/05/23 01:01:07;;;;;;;1.50;1.10;;;;;;;;;;5074137;28;20380;-81
2022/05/23 01:03:33;;;;;;;2.00;0.90;;;;;;;;;;5073874;28;20391;-81
2022/05/23 01:06:00;;;;;;;1.10;1.00;;;;;;;;;;5074327;28;20844;-81
2022/05/23 01:08:26;;;;;;;1.20;1.10;;;;;;;;;;5073729;28;20375;-82
2022/05/23 01:10:53;;;;;;;1.95;1.10;;;;;;;;;;5074287;28;20733;-83
2022/05/23 01:13:19;;;;;;;2.88;1.10;;;;;;;;;;5061348;28;20382;-81
2022/05/23 01:15:49;;;;;;;1.27;1.00;;;;;;;;;;5045855;28;20417;-81
2022/05/23 01:18:15;;;;;;;1.13;0.95;;;;;;;;;;5073764;28;20496;-83
2022/05/23 01:20:45;;;;;;;1.75;1.20;;;;;;;;;;5073635;28;20396;-81
2022/05/23 01:23:24;;;;;;;1.73;1.30;;;;;;;;;;5073519;28;20384;-81
2022/05/23 01:25:50;;;;;;;1.48;1.13;;;;;;;;;;5073611;28;20406;-81
2022/05/23 01:28:17;;;;;;;1.55;1.10;;;;;;;;;;5073621;28;20380;-81
2022/05/23 01:30:44;;;;;;;1.85;1.30;;;;;;;;;;5073503;28;20383;-81
2022/05/23 01:33:11;;;;;;;1.45;1.17;;;;;;;;;;5073454;28;20383;-81
2022/05/23 01:35:37;;;;;;;1.50;1.30;;;;;;;;;;5073404;28;20434;-81
2022/05/23 01:38:04;;;;;;;1.20;1.10;;;;;;;;;;5073292;28;20391;-83
2022/05/23 01:40:30;;;;;;;1.55;1.20;;;;;;;;;;5069591;28;20803;-82
2022/05/23 01:42:57;;;;;;;2.20;1.10;;;;;;;;;;5051928;28;20889;-82
2022/05/23 01:45:25;;;;;;;1.40;1.30;;;;;;;;;;5053575;28;20573;-82
2022/05/23 01:47:51;;;;;;;1.80;1.27;;;;;;;;;;5051418;28;20881;-81
2022/05/23 01:50:17;;;;;;;1.30;1.20;;;;;;;;;;5071143;28;20380;-82
2022/05/23 01:52:43;;;;;;;1.50;1.40;;;;;;;;;;5072586;28;20403;-82
2022/05/23 01:55:09;;;;;;;1.63;1.15;;;;;;;;;;5072006;28;20403;-82
2022/05/23 01:57:35;;;;;;;2.45;1.27;;;;;;;;;;5073019;28;20380;-82
2022/05/23 02:02:47;;;;;;;1.60;1.30;;;;;;;;;;5073161;28;20378;-81
2022/05/23 02:05:14;;;;;;;1.65;1.00;;;;;;;;;;5073124;28;20386;-81
2022/05/23 02:07:40;;;;;;;1.40;1.30;;;;;;;;;;5073080;28;20888;-81
2022/05/23 02:10:06;;;;;;;1.48;1.23;;;;;;;;;;5069910;28;20845;-81
2022/05/23 02:12:33;;;;;;;1.25;1.10;;;;;;;;;;5060273;28;20892;-80
2022/05/23 02:14:59;;;;;;;1.10;1.00;;;;;;;;;;5072994;28;20856;-81
2022/05/23 02:17:25;;;;;;;1.27;1.10;;;;;;;;;;5072601;28;20463;-82
2022/05/23 02:19:51;;;;;;;1.52;1.20;;;;;;;;;;5072837;28;20749;-81
2022/05/23 02:22:17;;;;;;;1.70;1.08;;;;;;;;;;5072478;28;20379;-83
2022/05/23 02:24:43;;;;;;;1.23;1.10;;;;;;;;;;5072555;28;20368;-81
2022/05/23 02:27:09;;;;;;;1.45;1.15;;;;;;;;;;5072487;28;20746;-82
2022/05/23 02:29:35;;;;;;;1.33;1.17;;;;;;;;;;5072487;28;20391;-81
2022/05/23 02:32:01;;;;;;;1.50;1.20;;;;;;;;;;5072464;28;20383;-81
2022/05/23 02:34:27;;;;;;;1.57;1.20;;;;;;;;;;5072400;28;20822;-82
2022/05/23 02:36:53;;;;;;;2.22;1.05;;;;;;;;;;5072409;28;20387;-81
2022/05/23 02:39:19;;;;;;;1.50;1.27;;;;;;;;;;5043840;28;20410;-81
2022/05/23 02:41:46;;;;;;;1.50;1.40;;;;;;;;;;5053148;28;20388;-81
2022/05/23 02:44:12;;;;;;;1.95;1.30;;;;;;;;;;5064644;28;20382;-81
2022/05/23 02:46:38;;;;;;;2.00;1.08;;;;;;;;;;5072333;28;20848;-81
2022/05/23 02:49:05;;;;;;;2.67;1.35;;;;;;;;;;5053355;28;20413;-81
2022/05/23 02:51:32;;;;;;;1.75;1.40;;;;;;;;;;5072209;28;20483;-83
2022/05/23 02:53:58;;;;;;;1.50;1.20;;;;;;;;;;5072242;28;20391;-81
2022/05/23 02:56:24;;;;;;;1.98;1.67;;;;;;;;;;5053966;28;20757;-81
2022/05/23 02:58:50;;;;;;;1.92;1.80;;;;;;;;;;5071902;28;20411;-81
2022/05/23 03:01:16;;;;;;;1.83;1.73;;;;;;;;;;5072347;28;20376;-82
2022/05/23 03:03:42;;;;;;;2.00;1.77;;;;;;;;;;5072103;28;20384;-81
2022/05/23 03:06:08;;;;;;;1.92;1.73;;;;;;;;;;5049988;28;20393;-82
2022/05/23 03:08:35;;;;;;;2.10;1.60;;;;;;;;;;5070208;28;20459;-82
2022/05/23 03:11:02;;;;;;;2.80;1.58;;;;;;;;;;5072120;28;20482;-82
2022/05/23 03:13:28;;;;;;;2.53;1.50;;;;;;;;;;5071932;28;20415;-81
2022/05/23 03:15:54;;;;;;;2.50;1.30;;;;;;;;;;5072319;28;20732;-81
2022/05/23 03:18:21;;;;;;;2.88;1.30;;;;;;;;;;5071994;28;20371;-82
2022/05/23 03:20:48;;;;;;;2.60;1.20;;;;;;;;;;5071894;28;20868;-82
2022/05/23 03:28:44;;;;;;;1.60;1.40;;;;;;;;;;5072094;28;20847;-82
2022/05/23 03:31:10;;;;;;;1.60;1.40;;;;;;;;;;5071996;28;20414;-81
2022/05/23 03:33:36;;;;;;;1.43;1.30;;;;;;;;;;5071867;28;20509;-82
2022/05/23 03:36:03;;;;;;;1.80;1.65;;;;;;;;;;5072001;28;20372;-82
2022/05/23 03:38:29;;;;;;;2.53;1.88;;;;;;;;;;5071647;28;20388;-82
2022/05/23 03:40:55;;;;;;;1.65;1.50;;;;;;;;;;5071731;28;20395;-82
2022/05/23 03:43:21;;;;;;;1.65;1.23;;;;;;;;;;5054246;28;20471;-82
2022/05/23 03:45:47;;;;;;;2.07;1.43;;;;;;;;;;5071639;28;20866;-82
2022/05/23 03:48:13;;;;;;;2.60;1.48;;;;;;;;;;5058980;28;20390;-82
2022/05/23 03:50:39;;;;;;;1.75;1.40;;;;;;;;;;5071697;28;20380;-82
2022/05/23 03:53:05;;;;;;;1.95;1.40;;;;;;;;;;5071505;28;20384;-80
2022/05/23 03:55:31;;;;;;;1.75;1.50;;;;;;;;;;5071429;28;20386;-81
2022/05/23 03:57:57;;;;;;;2.38;1.83;;;;;;;;;;5071807;28;20376;-81
2022/05/23 04:00:24;;;;;;;3.77;1.40;;;;;;;;;;5071540;28;20407;-81
2022/05/23 04:02:50;;;;;;;2.47;1.60;;;;;;;;;;5071400;28;20380;-81
2022/05/23 04:05:17;;;;;;;1.90;1.52;;;;;;;;;;5053565;28;20396;-81
2022/05/23 04:07:44;;;;;;;2.08;1.60;;;;;;;;;;5073883;28;20377;-82
2022/05/23 04:10:16;;;;;;;1.60;1.50;;;;;;;;;;5074874;28;20375;-81
2022/05/23 04:12:43;;;;;;;1.95;1.40;;;;;;;;;;5075048;28;20463;-82
2022/05/23 04:15:09;;;;;;;2.75;1.45;;;;;;;;;;5074402;28;20463;-81
2022/05/23 04:17:35;;;;;;;1.57;1.40;;;;;;;;;;5054936;28;20404;-81
2022/05/23 04:20:01;;;;;;;3.33;1.60;;;;;;;;;;5062940;28;20397;-82
2022/05/23 04:22:27;;;;;;;1.50;1.40;;;;;;;;;;5061365;28;20372;-81
2022/05/23 04:24:53;;;;;;;2.05;1.50;;;;;;;;;;5074817;28;20376;-82
2022/05/23 04:27:19;;;;;;;1.67;1.40;;;;;;;;;;5074028;28;20403;-82
2022/05/23 04:29:45;;;;;;;2.08;1.63;;;;;;;;;;5074651;28;20415;-82
2022/05/23 04:35:14;;;;;;;2.28;1.40;;;;;;;;;;5074848;28;20943;-82
2022/05/23 04:37:41;;;;;;;4.90;1.70;;;;;;;;;;5074066;28;20829;-81
2022/05/23 04:40:08;;;;;;;4.40;1.70;;;;;;;;;;5035877;28;20537;-81
2022/05/23 04:42:34;;;;;;;2.60;1.60;;;;;;;;;;5053674;28;20415;-82
2022/05/23 04:45:00;;;;;;;4.20;2.10;;;;;;;;;;5053649;28;20491;-80
2022/05/23 04:50:11;;;;;;;2.83;1.70;;;;;;;;;;5062448;28;20514;-80
2022/05/23 04:52:37;;;;;;;2.05;1.50;;;;;;;;;;5058215;28;20472;-81
2022/05/23 04:55:03;;;;;;;2.10;1.40;;;;;;;;;;5061581;28;20875;-81
2022/05/23 04:57:29;;;;;;;1.57;1.30;;;;;;;;;;5074290;28;20391;-82
2022/05/23 04:59:55;;;;;;;1.73;1.58;;;;;;;;;;5073955;28;20905;-81
2022/05/23 05:02:21;;;;;;;1.63;1.50;;;;;;;;;;5073825;28;20371;-80
2022/05/23 05:04:47;;;;;;;1.67;1.40;;;;;;;;;;5062162;28;22266;-80
2022/05/23 05:07:13;;;;;;;2.05;1.60;;;;;;;;;;5036147;28;20399;-82
2022/05/23 05:09:39;;;;;;;2.78;1.60;;;;;;;;;;5047600;28;20431;-83
2022/05/23 05:12:06;;;;;;;1.63;1.52;;;;;;;;;;5054341;28;20434;-80
2022/05/23 05:14:34;;;;;;;2.30;2.05;;;;;;;;;;5068070;28;20382;-80
2022/05/23 05:17:00;;;;;;;2.05;1.60;;;;;;;;;;5073723;28;20380;-80
2022/05/23 05:19:27;;;;;;;1.50;1.33;;;;;;;;;;5055799;28;20407;-80
2022/05/23 05:21:53;;;;;;;2.30;1.60;;;;;;;;;;5073622;28;20372;-80
2022/05/23 05:24:19;;;;;;;2.33;1.73;;;;;;;;;;5055586;28;20379;-79
2022/05/23 05:26:45;;;;;;;1.73;1.63;;;;;;;;;;5073703;28;20384;-80
2022/05/23 05:29:11;;;;;;;2.33;1.50;;;;;;;;;;5073693;28;20380;-78
2022/05/23 05:31:45;;;;;;;2.10;1.33;;;;;;;;;;5045994;28;20398;-80
2022/05/23 05:34:14;;;;;;;4.90;3.60;;;;;;;;;;5022595;28;20375;-80
2022/05/23 05:36:43;;;;;;;3.10;2.30;;;;;;;;;;5063507;28;20849;-80
2022/05/23 05:39:09;;;;;;;2.05;1.95;;;;;;;;;;5073112;28;20492;-80
2022/05/23 05:41:41;;;;;;;2.22;1.52;;;;;;;;;;5060280;28;20390;-80
2022/05/23 05:44:08;;;;;;;1.98;1.75;;;;;;;;;;5064194;28;20376;-80
2022/05/23 05:46:37;;;;;;;1.73;1.63;;;;;;;;;;5073520;28;20372;-80
2022/05/23 05:49:05;;;;;;;2.67;1.85;;;;;;;;;;5073301;28;20478;-80
2022/05/23 05:51:32;;;;;;;4.03;2.00;;;;;;;;;;5061074;28;20415;-80
2022/05/23 05:53:58;;;;;;;2.73;1.77;;;;;;;;;;5051126;28;20415;-79
2022/05/23 05:56:24;;;;;;;2.40;1.70;;;;;;;;;;5071558;28;20803;-79
2022/05/23 05:58:50;;;;;;;5.05;2.45;;;;;;;;;;5058823;28;20402;-79
2022/05/23 06:01:16;;;;;;;2.90;2.50;;;;;;;;;;5058667;28;20390;-79
2022/05/23 06:03:42;;;;;;;2.90;2.22;;;;;;;;;;5065747;28;20376;-79
2022/05/23 06:11:37;;;;;;;4.50;3.63;;;;;;;;;;5072686;28;20421;-80
2022/05/23 06:14:04;;;;;;;6.20;3.17;;;;;;;;;;5037809;28;20379;-80
2022/05/23 06:16:35;;;;;;;4.15;3.03;;;;;;;;;;5043171;28;20391;-80
2022/05/23 06:19:01;;;;;;;4.82;2.20;;;;;;;;;;5047588;28;20379;-80
2022/05/23 06:21:27;;;;;;;3.63;2.30;;;;;;;;;;5034709;28;20399;-79
2022/05/23 06:23:54;;;;;;;3.10;2.50;;;;;;;;;;5038771;28;20387;-79
2022/05/23 06:26:21;;;;;;;2.90;2.50;;;;;;;;;;5047268;28;20440;-80
2022/05/23 06:28:48;;;;;;;3.72;2.40;;;;;;;;;;5052924;28;20393;-80
2022/05/23 06:31:15;;;;;;;3.10;2.33;;;;;;;;;;5063086;28;20391;-80
2022/05/23 06:33:41;;;;;;;3.13;2.30;;;;;;;;;;5038273;28;20395;-80
2022/05/23 06:36:07;;;;;;;2.87;1.90;;;;;;;;;;5052273;28;20471;-80
2022/05/23 06:38:34;;;;;;;3.42;2.22;;;;;;;;;;5063297;28;20401;-80
2022/05/23 06:41:00;;;;;;;3.25;1.92;;;;;;;;;;5065950;28;20420;-80
2022/05/23 06:43:27;;;;;;;3.80;2.38;;;;;;;;;;5062080;28;20371;-81
2022/05/23 06:45:53;;;;;;;3.85;2.10;;;;;;;;;;5068369;28;20370;-82
2022/05/23 06:48:19;;;;;;;3.38;2.45;;;;;;;;;;5061116;28;20447;-80
2022/05/23 06:50:47;;;;;;;3.15;2.70;;;;;;;;;;5072235;28;20379;-80
2022/05/23 06:53:13;;;;;;;3.13;2.40;;;;;;;;;;5072355;28;20384;-80
2022/05/23 06:55:39;;;;;;;4.68;3.10;;;;;;;;;;5061609;28;20427;-80
2022/05/23 06:58:06;;;;;;;4.18;2.80;;;;;;;;;;5066818;28;20463;-80
2022/05/23 07:00:33;;;;;;;4.50;2.90;;;;;;;;;;5072174;28;20457;-80
2022/05/23 07:02:59;;;;;;;4.35;2.92;;;;;;;;;;5072052;28;20379;-80
2022/05/23 07:13:39;;;;;;;3.07;2.30;;;;;;;;;;5070343;28;20453;-80
2022/05/23 07:16:05;;;;;;;3.47;2.47;;;;;;;;;;5051786;28;20472;-80
2022/05/23 07:18:32;;;;;;;3.55;2.33;;;;;;;;;;5066628;28;20408;-80
2022/05/23 07:20:58;;;;;;;3.22;2.30;;;;;;;;;;5071961;28;20461;-81
2022/05/23 07:23:24;;;;;;;3.38;2.28;;;;;;;;;;5071831;28;20383;-81
2022/05/23 07:25:50;;;;;;;4.15;2.13;;;;;;;;;;5071669;28;20409;-81
2022/05/23 07:28:16;;;;;;;2.38;2.13;;;;;;;;;;5072144;28;20368;-80
2022/05/23 07:30:45;;;;;;;2.60;1.98;;;;;;;;;;5071748;28;20403;-80
2022/05/23 07:33:11;;;;;;;2.92;2.10;;;;;;;;;;5071790;28;20406;-81
2022/05/23 07:35:37;;;;;;;4.25;2.53;;;;;;;;;;5071766;28;20454;-81
2022/05/23 07:38:03;;;;;;;2.42;2.22;;;;;;;;;;5071738;28;20383;-80
2022/05/23 07:40:29;;;;;;;3.67;2.40;;;;;;;;;;5055613;28;20413;-81
2022/05/23 07:42:55;;;;;;;3.22;2.30;;;;;;;;;;5056633;28;20384;-80
2022/05/23 07:45:21;;;;;;;3.05;2.47;;;;;;;;;;5075611;28;20406;-81
2022/05/23 07:47:48;;;;;;;4.63;2.35;;;;;;;;;;5075458;28;20382;-80
2022/05/23 07:50:14;;;;;;;3.35;2.10;;;;;;;;;;5075485;28;20395;-81
2022/05/23 08:00:29;;;;;;;5.63;2.37;;;;;;;;;;5075295;28;20383;-81
2022/05/23 08:01:11;;;;;;;4.40;2.80;;;;;;;;;;4993732;28;20418;-81
2022/05/23 08:03:39;;;;;;;4.03;2.58;;;;;;;;;;5058400;28;20482;-81
2022/05/23 08:06:05;;;;;;;4.97;2.50;;;;;;;;;;5075422;28;20383;-81
2022/05/23 08:08:32;;;;;;;5.88;2.70;;;;;;;;;;5075103;28;20450;-81
2022/05/23 08:10:59;;;;;;;12.43;3.00;;;;;;;;;;5074930;28;20494;-81
2022/05/23 08:13:25;;;;;;;2.70;2.30;;;;;;;;;;5074791;28;20382;-81
2022/05/23 08:15:51;;;;;;;4.07;2.40;;;;;;;;;;5074988;28;20385;-81
2022/05/23 08:18:18;;;;;;;5.07;2.28;;;;;;;;;;5074855;28;20368;-81
2022/05/23 08:20:44;;;;;;;4.47;2.60;;;;;;;;;;5074787;28;20935;-81
2022/05/23 08:23:10;;;;;;;4.25;2.70;;;;;;;;;;5074770;28;20429;-81
2022/05/23 08:25:36;;;;;;;5.10;2.80;;;;;;;;;;5056688;28;20380;-82
2022/05/23 08:28:03;;;;;;;5.03;2.90;;;;;;;;;;5074956;28;20421;-81
2022/05/23 08:30:29;;;;;;;3.88;2.78;;;;;;;;;;5074627;28;20407;-82
2022/05/23 08:32:55;;;;;;;3.87;2.60;;;;;;;;;;5064868;28;20373;-82
2022/05/23 08:35:23;;;;;;;2.95;2.50;;;;;;;;;;5067920;28;20395;-82
2022/05/23 08:37:49;;;;;;;4.13;2.85;;;;;;;;;;5074550;28;20467;-82
2022/05/23 08:40:15;;;;;;;4.00;2.58;;;;;;;;;;5074353;28;20400;-82
2022/05/23 08:42:41;;;;;;;3.75;3.00;;;;;;;;;;5063495;28;20406;-82
2022/05/23 08:45:21;;;;;;;5.00;3.08;;;;;;;;;;5073664;28;20372;-81
2022/05/23 08:48:05;;;;;;;3.30;2.85;;;;;;;;;;5074382;28;20846;-82
2022/05/23 08:50:43;;;;;;;5.33;2.80;;;;;;;;;;5074370;28;20410;-82
2022/05/23 08:53:12;;;;;;;4.40;2.70;;;;;;;;;;5073817;28;20371;-82
2022/05/23 08:55:40;;;;;;;4.20;3.05;;;;;;;;;;5074054;28;20380;-83
2022/05/23 08:58:14;;;;;;;4.97;2.85;;;;;;;;;;5063855;28;20377;-82
2022/05/23 09:00:42;;;;;;;3.33;2.92;;;;;;;;;;5055426;28;20415;-82
2022/05/23 09:03:11;;;;;;;6.23;3.40;;;;;;;;;;5050242;28;20464;-82
2022/05/23 09:05:39;;;;;;;4.68;2.80;;;;;;;;;;5074059;28;20459;-82
2022/05/23 09:08:07;;;;;;;4.45;3.33;;;;;;;;;;5074430;28;20728;-82
2022/05/23 09:10:46;;;;;;;4.55;3.58;;;;;;;;;;5073764;28;20384;-82
2022/05/23 09:13:13;;;;;;;6.00;3.00;;;;;;;;;;5073914;28;20380;-82
2022/05/23 09:15:39;;;;;;;6.07;3.00;;;;;;;;;;5066071;28;20373;-82
2022/05/23 09:18:06;;;;;;;4.35;3.13;;;;;;;;;;5047177;28;20415;-82
2022/05/23 09:20:38;;;;;;;5.50;3.08;;;;;;;;;;5056138;28;20886;-82
2022/05/23 09:23:07;;;;;;;4.17;2.80;;;;;;;;;;5035242;28;20772;-82
2022/05/23 09:25:33;;;;;;;3.70;3.22;;;;;;;;;;5051979;28;20392;-82
2022/05/23 09:28:04;;;;;;;4.07;3.05;;;;;;;;;;5061045;28;20896;-82
2022/05/23 09:30:30;;;;;;;5.43;3.53;;;;;;;;;;5073475;28;20454;-83
2022/05/23 09:33:08;;;;;;;6.07;3.50;;;;;;;;;;5073693;28;20376;-84
2022/05/23 09:35:43;;;;;;;3.60;3.10;;;;;;;;;;5073318;28;20861;-82
2022/05/23 09:38:14;;;;;;;5.57;3.45;;;;;;;;;;5059390;28;20389;-81
2022/05/23 09:40:41;;;;;;;3.75;3.25;;;;;;;;;;5068197;28;20980;-81
2022/05/23 09:49:09;;;;;;;10.02;3.50;;;;;;;;;;5073176;28;20417;-82
2022/05/23 09:51:54;;;;;;;8.33;3.43;;;;;;;;;;5061611;28;20375;-82
2022/05/23 09:54:40;;;;;;;4.45;3.53;;;;;;;;;;5064100;28;20710;-83
2022/05/23 09:57:16;;;;;;;5.70;3.40;;;;;;;;;;5055931;28;20784;-82
2022/05/23 09:59:42;;;;;;;5.68;3.60;;;;;;;;;;5072912;28;20491;-83
2022/05/23 10:02:20;;;;;;;4.68;3.30;;;;;;;;;;5072777;28;20375;-82
2022/05/23 10:04:46;;;;;;;5.80;3.30;;;;;;;;;;5052483;28;20766;-82
2022/05/23 10:07:23;;;;;;;6.47;4.00;;;;;;;;;;5041959;28;20466;-82
2022/05/23 10:09:58;;;;;;;5.13;3.63;;;;;;;;;;5059314;28;20376;-82
2022/05/23 10:12:25;;;;;;;5.63;3.53;;;;;;;;;;5048327;28;20482;-82
2022/05/23 10:15:02;;;;;;;4.35;3.38;;;;;;;;;;5057863;28;20402;-82
2022/05/23 10:17:29;;;;;;;4.80;3.50;;;;;;;;;;5072871;28;20379;-82
2022/05/23 10:20:15;;;;;;;4.97;3.28;;;;;;;;;;5072630;28;20399;-83
2022/05/23 10:22:53;;;;;;;4.93;3.67;;;;;;;;;;5072616;28;20450;-83
2022/05/23 10:25:20;;;;;;;12.73;3.80;;;;;;;;;;5072716;28;20417;-83
2022/05/23 10:27:57;;;;;;;12.18;3.97;;;;;;;;;;5047773;28;20391;-83
2022/05/23 10:30:28;;;;;;;18.13;4.07;;;;;;;;;;5049964;28;20392;-83
2022/05/23 10:32:57;;;;;;;12.02;3.75;;;;;;;;;;5044020;28;20474;-82
2022/05/23 10:35:27;;;;;;;33.38;5.20;;;;;;;;;;5058479;28;20860;-82
2022/05/23 10:37:53;;;;;;;10.73;4.10;;;;;;;;;;5049059;28;20395;-82
2022/05/23 10:43:20;;;;;;;9.50;2.50;;;;;;;;;;5049764;28;20916;-81
2022/05/23 10:45:49;;;;;;;8.45;2.10;;;;;;;;;;5055196;28;20398;-81
2022/05/23 10:48:27;;;;;;;8.68;2.00;;;;;;;;;;5058181;28;20395;-83
2022/05/23 10:50:55;;;;;;;3.92;1.95;;;;;;;;;;5072119;28;20376;-81
2022/05/23 10:53:21;;;;;;;5.93;2.20;;;;;;;;;;5072146;28;20849;-82
2022/05/23 10:55:54;;;;;;;5.35;2.30;;;;;;;;;;5071952;28;20390;-82
2022/05/23 10:58:31;;;;;;;8.68;2.63;;;;;;;;;;5056879;28;20373;-81
2022/05/23 11:01:08;;;;;;;5.93;2.25;;;;;;;;;;5072142;28;20407;-81
2022/05/23 11:03:40;;;;;;;5.50;2.30;;;;;;;;;;5072063;28;20407;-81
2022/05/23 11:06:31;;;;;;;6.22;2.17;;;;;;;;;;5072020;28;20441;-83
2022/05/23 11:09:06;;;;;;;5.05;2.20;;;;;;;;;;5071926;28;20372;-82
2022/05/23 11:11:51;;;;;;;5.35;2.40;;;;;;;;;;5071751;28;20415;-82
2022/05/23 11:14:26;;;;;;;5.47;2.53;;;;;;;;;;5053933;28;20380;-82
2022/05/23 11:16:52;;;;;;;6.00;2.43;;;;;;;;;;5074935;28;20741;-83
2022/05/23 11:19:21;;;;;;;5.90;2.10;;;;;;;;;;5051901;28;20387;-82
2022/05/23 11:22:08;;;;;;;6.03;2.03;;;;;;;;;;5040628;28;20389;-81
2022/05/23 11:24:53;;;;;;;5.80;2.25;;;;;;;;;;5047075;28;20383;-82
2022/05/23 11:35:49;;;;;;;7.82;1.85;;;;;;;;;;5071153;28;20729;-83
2022/05/23 11:38:16;;;;;;;5.25;2.00;;;;;;;;;;5038116;28;20395;-82
2022/05/23 11:40:51;;;;;;;5.28;2.17;;;;;;;;;;5039855;28;20411;-83
2022/05/23 11:43:18;;;;;;;5.25;1.98;;;;;;;;;;5043743;28;20379;-82
2022/05/23 11:45:59;;;;;;;6.38;2.20;;;;;;;;;;5047414;28;20385;-82
2022/05/23 11:48:40;;;;;;;4.65;2.00;;;;;;;;;;5057168;28;20376;-83
2022/05/23 11:51:29;;;;;;;4.88;2.25;;;;;;;;;;5062186;28;20379;-82
2022/05/23 11:54:03;;;;;;;4.63;1.90;;;;;;;;;;5067894;28;20376;-82
2022/05/23 11:56:47;;;;;;;4.25;2.03;;;;;;;;;;5050858;28;20434;-83
2022/05/23 11:59:33;;;;;;;6.35;2.25;;;;;;;;;;5042535;28;20560;-83
2022/05/23 12:02:11;;;;;;;4.85;2.10;;;;;;;;;;5050303;28;20403;-83
2022/05/23 12:04:49;;;;;;;4.38;2.20;;;;;;;;;;5066885;28;20375;-83
2022/05/23 12:07:34;;;;;;;7.75;2.33;;;;;;;;;;5067229;28;20875;-83
2022/05/23 12:10:18;;;;;;;3.33;1.95;;;;;;;;;;5039428;28;20438;-82
2022/05/23 12:13:07;;;;;;;6.70;2.13;;;;;;;;;;5040920;28;20383;-82
2022/05/23 12:15:42;;;;;;;5.80;2.30;;;;;;;;;;5041109;28;20890;-83
2022/05/23 12:18:29;;;;;;;4.60;1.88;;;;;;;;;;5042717;28;20422;-82
2022/05/23 12:20:55;;;;;;;4.25;2.00;;;;;;;;;;5025782;28;20438;-83
2022/05/23 12:23:30;;;;;;;3.88;2.00;;;;;;;;;;5045956;28;20461;-82
2022/05/23 12:26:14;;;;;;;6.10;2.38;;;;;;;;;;5040568;28;20383;-82
2022/05/23 12:28:43;;;;;;;3.72;1.95;;;;;;;;;;5038781;28;20379;-83
2022/05/23 12:31:11;;;;;;;6.10;2.15;;;;;;;;;;5040597;28;20418;-83
2022/05/23 12:33:39;;;;;;;5.55;1.98;;;;;;;;;;5043011;28;20380;-82
2022/05/23 12:36:07;;;;;;;3.80;1.90;;;;;;;;;;5046616;28;20785;-82
2022/05/23 12:38:36;;;;;;;3.88;1.75;;;;;;;;;;5044099;28;20760;-83
2022/05/23 12:41:02;;;;;;;5.70;1.90;;;;;;;;;;5035525;28;20409;-83
2022/05/23 12:43:49;;;;;;;4.75;2.03;;;;;;;;;;5041755;28;20474;-83
2022/05/23 12:46:35;;;;;;;5.68;2.10;;;;;;;;;;5043301;28;20983;-83
2022/05/23 12:49:18;;;;;;;4.80;1.90;;;;;;;;;;5037557;28;20367;-83
2022/05/23 12:51:50;;;;;;;4.65;2.10;;;;;;;;;;5040676;28;20395;-83
2022/05/23 12:54:29;;;;;;;5.28;2.15;;;;;;;;;;5039738;28;20463;-82
2022/05/23 12:57:04;;;;;;;4.28;2.00;;;;;;;;;;5034709;28;20777;-83
2022/05/23 12:59:48;;;;;;;3.85;1.95;;;;;;;;;;5026088;28;20894;-83
2022/05/23 13:02:26;;;;;;;3.95;2.20;;;;;;;;;;5043880;28;20873;-84
2022/05/23 13:05:13;;;;;;;5.00;2.40;;;;;;;;;;5037921;28;20375;-84
2022/05/23 13:07:49;;;;;;;7.05;2.25;;;;;;;;;;5045713;28;20856;-84
2022/05/23 13:10:20;;;;;;;8.02;2.47;;;;;;;;;;5037887;28;20379;-83
2022/05/23 13:12:59;;;;;;;4.97;2.28;;;;;;;;;;5039807;28;20375;-84
2022/05/23 13:15:27;;;;;;;8.63;2.55;;;;;;;;;;5034763;28;20395;-83
2022/05/23 13:22:05;;;;;;;8.15;2.90;;;;;;;;;;5036841;28;20390;-83
2022/05/23 13:23:24;;;;;;;8.10;2.30;;;;;;;;;;5039414;28;20386;-82
2022/05/23 13:25:51;;;;;;;8.23;2.55;;;;;;;;;;5050566;28;20408;-82
2022/05/23 13:28:19;;;;;;;13.63;2.88;;;;;;;;;;5044275;28;20377;-82
2022/05/23 13:30:56;;;;;;;14.63;2.95;;;;;;;;;;5037390;28;20729;-84
2022/05/23 13:33:26;;;;;;;12.85;2.53;;;;;;;;;;5015154;28;20757;-83
2022/05/23 13:36:03;;;;;;;14.27;2.80;;;;;;;;;;5042628;28;20383;-83
2022/05/23 13:38:30;;;;;;;7.78;2.25;;;;;;;;;;5037329;28;20383;-83
2022/05/23 13:40:57;;;;;;;22.67;3.40;;;;;;;;;;5049519;28;20404;-82
2022/05/23 13:43:23;;;;;;;6.10;2.30;;;;;;;;;;5034889;28;21094;-83
2022/05/23 13:45:56;;;;;;;6.80;2.47;;;;;;;;;;5034898;28;20433;-82
2022/05/23 13:48:30;;;;;;;19.65;2.90;;;;;;;;;;5043436;28;20387;-83
2022/05/23 13:50:59;;;;;;;13.63;2.70;;;;;;;;;;5040850;28;20386;-82
2022/05/23 13:53:31;;;;;;;5.30;2.33;;;;;;;;;;5036464;28;21082;-82
2022/05/23 13:55:59;;;;;;;18.63;2.97;;;;;;;;;;5038131;28;20482;-82
2022/05/23 13:58:28;;;;;;;11.33;2.77;;;;;;;;;;5032069;28;20399;-82
2022/05/23 14:01:01;;;;;;;4.10;2.20;;;;;;;;;;5037136;28;20447;-82
2022/05/23 14:03:37;;;;;;;6.30;2.22;;;;;;;;;;5040309;28;20379;-82
2022/05/23 14:06:07;;;;;;;6.07;2.33;;;;;;;;;;5040980;28;20385;-82
2022/05/23 14:08:36;;;;;;;3.38;2.10;;;;;;;;;;5039168;28;20391;-82
2022/05/23 14:11:28;;;;;;;5.97;2.22;;;;;;;;;;5031989;28;20930;-82
2022/05/23 14:14:11;;;;;;;4.40;2.35;;;;;;;;;;5041545;28;20422;-82
2022/05/23 14:16:37;;;;;;;4.68;1.90;;;;;;;;;;5061196;28;20837;-82
2022/05/23 14:19:13;;;;;;;5.95;2.25;;;;;;;;;;5054898;28;20403;-83
2022/05/23 14:21:40;;;;;;;4.88;2.20;;;;;;;;;;5072568;28;20407;-82
2022/05/23 14:24:27;;;;;;;4.53;2.20;;;;;;;;;;5072569;28;20368;-82
2022/05/23 14:27:05;;;;;;;5.82;2.13;;;;;;;;;;5059299;28;20394;-81
2022/05/23 14:29:31;;;;;;;5.28;2.10;;;;;;;;;;5059775;28;20376;-81
2022/05/23 14:32:01;;;;;;;4.55;2.15;;;;;;;;;;5054861;28;20401;-82
2022/05/23 14:34:28;;;;;;;5.20;2.30;;;;;;;;;;5050771;28;20374;-82
2022/05/23 14:36:58;;;;;;;4.50;2.13;;;;;;;;;;5052610;28;20874;-82
2022/05/23 14:39:28;;;;;;;4.75;2.05;;;;;;;;;;5063386;28;20520;-82
2022/05/23 14:41:55;;;;;;;5.10;2.25;;;;;;;;;;5051348;28;20423;-86
2022/05/23 14:44:24;;;;;;;30.30;5.68;;;;;;;;;;5053523;28;20393;-83
2022/05/23 14:47:01;;;;;;;10.38;3.55;;;;;;;;;;5051933;28;20885;-84
2022/05/23 14:49:32;;;;;;;13.37;3.93;;;;;;;;;;5055780;28;20372;-87
2022/05/23 14:51:58;;;;;;;11.05;3.75;;;;;;;;;;5062370;28;20381;-85
2022/05/23 15:00:37;;;;;;;10.40;3.30;;;;;;;;;;5051342;28;20456;-84
2022/05/23 15:03:00;;;;;;;7.00;2.90;;;;;;;;;;5062291;28;20473;-84
2022/05/23 15:05:26;;;;;;;8.00;3.10;;;;;;;;;;5057311;28;20530;-83
2022/05/23 15:08:01;;;;;;;5.97;2.53;;;;;;;;;;5050680;28;20488;-83
2022/05/23 15:10:29;;;;;;;6.60;2.70;;;;;;;;;;5070194;28;20391;-82
2022/05/23 15:12:55;;;;;;;5.13;2.65;;;;;;;;;;5071645;28;20386;-82
2022/05/23 15:15:21;;;;;;;6.93;2.90;;;;;;;;;;5071942;28;20380;-82
2022/05/23 15:17:47;;;;;;;14.93;3.80;;;;;;;;;;5069390;28;20383;-82
2022/05/23 15:20:13;;;;;;;7.60;3.08;;;;;;;;;;5054290;28;20424;-81
2022/05/23 15:22:41;;;;;;;10.15;3.55;;;;;;;;;;5064789;28;20927;-81
2022/05/23 15:25:09;;;;;;;6.90;3.07;;;;;;;;;;5054628;28;20388;-81
2022/05/23 15:27:35;;;;;;;9.68;4.70;;;;;;;;;;5066818;28;20415;-81
2022/05/23 15:30:03;;;;;;;11.75;4.28;;;;;;;;;;5063197;28;20402;-81
2022/05/23 15:32:29;;;;;;;6.40;3.92;;;;;;;;;;5067994;28;20386;-81
2022/05/23 15:34:55;;;;;;;6.93;4.50;;;;;;;;;;5071679;28;20539;-80
2022/05/23 15:37:21;;;;;;;8.68;3.85;;;;;;;;;;5059033;28;20469;-80
2022/05/23 15:39:47;;;;;;;8.02;3.85;;;;;;;;;;5064209;28;20809;-80
2022/05/23 15:42:19;;;;;;;5.97;3.08;;;;;;;;;;5048155;28;20410;-81
2022/05/23 15:44:45;;;;;;;6.07;3.15;;;;;;;;;;5045248;28;20376;-81
2022/05/23 15:47:12;;;;;;;10.20;3.90;;;;;;;;;;5057648;28;20838;-80
2022/05/23 15:49:38;;;;;;;7.38;3.65;;;;;;;;;;5070478;28;20520;-81
2022/05/23 15:52:05;;;;;;;9.93;3.70;;;;;;;;;;5062987;28;20456;-80
2022/05/23 15:54:31;;;;;;;5.25;3.30;;;;;;;;;;5052623;28;20388;-81
2022/05/23 15:56:59;;;;;;;10.27;3.88;;;;;;;;;;5057148;28;20892;-80
2022/05/23 15:59:27;;;;;;;10.20;3.97;;;;;;;;;;5062805;28;20401;-81
2022/05/23 16:01:53;;;;;;;9.32;3.70;;;;;;;;;;5050259;28;20462;-81